Погода Глогувна 2 недели

Нижнесилезское воеводство, Польша

16 - 29 июля
  • 16июля
    Сегодня
    +17°
    +27°
    Ясно и безоблачно
    ВремяПогодаТемператураВлажностьДавлениеВетер, м/сВероятность осадков
    02:00Небольшая облачность+20°C71 %751 мм3.8 м/с2 %
    05:00Небольшая облачность+19°C74 %750 мм3.8 м/с2 %
    08:00Облачно с прояснениями+24°C78 %750 мм2.8 м/с12 %
    11:00Облачно с прояснениями+27°C67 %750 мм3.5 м/с30 %
    14:00Ясно и безоблачно+25°C65 %751 мм4.2 м/с24 %
    17:00Ясно и безоблачно+27°C53 %751 мм3.8 м/с8 %
    20:00Практически безоблачно+25°C64 %751 мм2.0 м/с1 %
    23:00Небольшая облачность+21°C70 %752 мм2.6 м/с2 %
  • 17июля
    Среда
    +14°
    +27°
    Облачно с прояснениями
    ВремяПогодаТемператураВлажностьДавлениеВетер, м/сВероятность осадков
    02:00Ясно и безоблачно+20°C64 %753 мм3.6 м/с2 %
    05:00Ясно и безоблачно+17°C70 %754 мм3.5 м/с2 %
    08:00Ясно и безоблачно+21°C66 %756 мм4.0 м/с1 %
    11:00Небольшая облачность+23°C55 %756 мм3.8 м/с2 %
    14:00Облачно с прояснениями+26°C42 %756 мм5.2 м/с1 %
    17:00Облачно с прояснениями+26°C41 %756 мм4.9 м/с2 %
    20:00Небольшая облачность+24°C54 %756 мм3.4 м/с2 %
    23:00Ясно и безоблачно+18°C73 %757 мм1.9 м/с2 %
  • 18июля
    Четверг
    +14°
    +26°
    Практически безоблачно
    ВремяПогодаТемператураВлажностьДавлениеВетер, м/сВероятность осадков
    02:00Ясно и безоблачно+17°C80 %758 мм1.8 м/с2 %
    05:00Ясно и безоблачно+15°C84 %758 мм2.0 м/с2 %
    08:00Ясно и безоблачно+19°C74 %759 мм2.3 м/с2 %
    11:00Практически безоблачно+23°C58 %759 мм3.2 м/с2 %
    14:00Практически безоблачно+25°C49 %759 мм3.3 м/с2 %
    17:00Небольшая облачность+26°C45 %758 мм3.3 м/с2 %
    20:00Облачно с прояснениями+24°C62 %758 мм1.7 м/с2 %
    23:00Облачно с прояснениями+19°C72 %759 мм2.2 м/с2 %
  • 19июля
    Пятница
    +14°
    +28°
    Облачно с прояснениями
    ВремяПогодаТемператураВлажностьДавлениеВетер, м/сВероятность осадков
    02:00Небольшая облачность+17°C81 %758 мм2.2 м/с2 %
    05:00Практически безоблачно+15°C88 %758 мм2.0 м/с2 %
    08:00Небольшая облачность+20°C74 %758 мм0.8 м/с2 %
    11:00Ясно и безоблачно+25°C50 %758 мм1.0 м/с2 %
    14:00Облачно с прояснениями+27°C42 %758 мм0.8 м/с9 %
    17:00Небольшая облачность+28°C40 %757 мм1.4 м/с10 %
    20:00Практически безоблачно+25°C60 %756 мм1.2 м/с5 %
    23:00Ясно и безоблачно+19°C79 %756 мм1.1 м/с2 %
  • 20июля
    Суббота
    +16°
    +28°
    Ясно и безоблачно
    ВремяПогодаТемператураВлажностьДавлениеВетер, м/сВероятность осадков
    02:00Ясно и безоблачно+19°C77 %756 мм2.3 м/с2 %
    05:00Ясно и безоблачно+16°C87 %756 мм2.1 м/с2 %
    08:00Ясно и безоблачно+21°C73 %755 мм1.3 м/с2 %
    11:00Ясно и безоблачно+26°C48 %755 мм1.3 м/с2 %
    14:00Ясно и безоблачно+28°C39 %755 мм1.2 м/с9 %
    17:00Ясно и безоблачно+29°C39 %753 мм2.0 м/с11 %
    20:00Ясно и безоблачно+26°C55 %753 мм1.7 м/с5 %
    23:00Ясно и безоблачно+20°C65 %753 мм2.9 м/с2 %
Мы используем cookies
Соглашаюсь